createdAt,value
2023-04-06T00:01:18.120Z,23.00
2023-04-06T00:03:46.629Z,23.20
2023-04-06T00:06:17.315Z,23.50
2023-04-06T00:08:46.250Z,23.40
2023-04-06T00:11:14.733Z,23.30
2023-04-06T00:13:43.253Z,23.30
2023-04-06T00:16:11.683Z,23.10
2023-04-06T00:18:40.170Z,23.20
2023-04-06T00:21:08.655Z,23.10
2023-04-06T00:23:38.628Z,23.10
2023-04-06T00:26:07.416Z,23.20
2023-04-06T00:28:36.109Z,22.90
2023-04-06T00:31:04.834Z,22.90
2023-04-06T00:33:34.684Z,22.90
2023-04-06T00:36:03.237Z,23.00
2023-04-06T00:38:31.773Z,22.90
2023-04-06T00:41:02.254Z,22.90
2023-04-06T00:43:30.665Z,22.90
2023-04-06T00:45:59.128Z,23.00
2023-04-06T00:48:28.262Z,23.10
2023-04-06T00:50:56.792Z,23.10
2023-04-06T00:53:25.388Z,23.40
2023-04-06T00:55:53.913Z,23.50
2023-04-06T00:58:23.894Z,23.50
2023-04-06T01:00:52.492Z,24.10
2023-04-06T01:03:21.166Z,24.00
2023-04-06T01:05:49.759Z,23.90
2023-04-06T01:08:18.399Z,23.60
2023-04-06T01:10:46.904Z,23.40
2023-04-06T01:13:15.522Z,23.50
2023-04-06T01:15:45.788Z,23.70
2023-04-06T01:18:14.526Z,23.80
2023-04-06T01:20:43.053Z,23.90
2023-04-06T01:23:13.025Z,24.60
2023-04-06T01:25:41.720Z,24.10
2023-04-06T01:28:10.503Z,24.10
2023-04-06T01:30:39.091Z,24.00
2023-04-06T01:33:07.615Z,24.10
2023-04-06T01:35:36.313Z,24.10
2023-04-06T01:38:04.837Z,24.20
2023-04-06T01:40:34.893Z,24.10
2023-04-06T01:43:04.046Z,24.00
2023-04-06T01:45:32.537Z,24.30
2023-04-06T01:48:01.021Z,24.50
2023-04-06T01:50:29.504Z,24.90
2023-04-06T01:52:58.064Z,24.80
2023-04-06T01:55:27.156Z,24.80
2023-04-06T01:57:57.093Z,24.90
2023-04-06T02:00:25.672Z,24.70
2023-04-06T02:02:54.265Z,24.70
2023-04-06T02:05:23.075Z,24.80
2023-04-06T02:07:52.654Z,24.80
2023-04-06T02:10:21.560Z,25.00
2023-04-06T02:12:50.264Z,25.00
2023-04-06T02:15:20.157Z,25.00
2023-04-06T02:17:48.730Z,25.10
2023-04-06T02:20:17.430Z,25.00
2023-04-06T02:22:46.389Z,25.20
2023-04-06T02:25:14.797Z,25.20
2023-04-06T02:27:43.367Z,25.20
2023-04-06T02:30:13.493Z,25.20
2023-04-06T02:32:43.629Z,25.30
2023-04-06T02:35:12.166Z,26.00
2023-04-06T02:37:40.778Z,25.30
2023-04-06T02:40:11.096Z,25.20
2023-04-06T02:42:39.597Z,25.10
2023-04-06T02:45:09.549Z,25.20
2023-04-06T02:47:38.005Z,25.20
2023-04-06T02:50:08.751Z,25.20
2023-04-06T02:52:37.197Z,25.20
2023-04-06T02:55:08.619Z,25.30
2023-04-06T02:57:37.104Z,25.30
2023-04-06T03:00:07.741Z,25.70
2023-04-06T03:02:36.311Z,25.70
2023-04-06T03:05:05.467Z,25.60
2023-04-06T03:07:35.402Z,25.50
2023-04-06T03:10:03.843Z,25.50
2023-04-06T03:12:32.407Z,25.60
2023-04-06T03:15:01.145Z,25.60
2023-04-06T03:17:29.599Z,25.60
2023-04-06T03:19:58.016Z,25.60
2023-04-06T03:22:27.150Z,25.80
2023-04-06T03:24:57.179Z,25.80
2023-04-06T03:27:25.723Z,25.90
2023-04-06T03:29:54.273Z,26.00
2023-04-06T03:32:22.851Z,26.00
2023-04-06T03:34:51.316Z,25.90
2023-04-06T03:37:19.951Z,25.90
2023-04-06T03:39:48.474Z,25.80
2023-04-06T03:42:18.441Z,26.00
2023-04-06T03:44:46.910Z,26.10
2023-04-06T03:47:15.645Z,25.90
2023-04-06T03:49:44.362Z,26.00
2023-04-06T03:52:12.967Z,26.00
2023-04-06T03:54:41.501Z,26.10
2023-04-06T03:57:10.006Z,26.00
2023-04-06T03:59:40.048Z,26.90
2023-04-06T04:02:09.039Z,26.10
2023-04-06T04:04:37.725Z,26.30
2023-04-06T04:07:06.228Z,26.40
2023-04-06T04:09:34.849Z,26.20
2023-04-06T04:12:03.313Z,26.30
2023-04-06T04:14:31.812Z,26.30
2023-04-06T04:17:01.709Z,26.40
2023-04-06T04:19:30.177Z,26.60
2023-04-06T04:21:58.698Z,26.70
2023-04-06T04:24:27.216Z,26.70
2023-04-06T04:26:56.594Z,26.70
2023-04-06T04:29:25.169Z,26.70
2023-04-06T04:31:53.728Z,26.50
2023-04-06T04:34:26.158Z,26.50
2023-04-06T04:36:55.020Z,26.60
2023-04-06T04:39:23.496Z,26.60
2023-04-06T04:41:51.961Z,26.80
2023-04-06T04:44:21.058Z,26.80
2023-04-06T04:46:49.578Z,26.90
2023-04-06T04:49:18.312Z,26.90
2023-04-06T04:51:48.272Z,27.10
2023-04-06T04:54:16.743Z,27.20
2023-04-06T04:56:45.134Z,27.30
2023-04-06T04:59:13.671Z,27.20
2023-04-06T05:01:54.448Z,27.10
2023-04-06T05:04:24.475Z,27.10
2023-04-06T05:07:06.101Z,27.10
2023-04-06T05:09:34.651Z,27.20
2023-04-06T05:12:03.980Z,27.50
2023-04-06T05:14:32.454Z,27.00
2023-04-06T05:17:01.465Z,27.90
2023-04-06T05:19:30.002Z,27.20
2023-04-06T05:21:59.848Z,27.20
2023-04-06T05:24:28.410Z,27.30
2023-04-06T05:26:57.380Z,27.40
2023-04-06T05:29:25.800Z,27.40
2023-04-06T05:31:54.584Z,27.20
2023-04-06T05:34:23.183Z,27.20
2023-04-06T05:36:51.631Z,27.50
2023-04-06T05:39:21.743Z,27.60
2023-04-06T05:41:51.390Z,27.80
2023-04-06T05:44:20.021Z,27.80
2023-04-06T05:46:48.586Z,27.70
2023-04-06T05:49:17.116Z,27.90
2023-04-06T05:51:45.685Z,27.80
2023-04-06T05:54:14.212Z,28.00
2023-04-06T05:56:44.435Z,28.00
2023-04-06T05:59:13.002Z,27.80
2023-04-06T06:01:41.783Z,27.70
2023-04-06T06:04:10.374Z,27.30
2023-04-06T06:06:38.966Z,27.00
2023-04-06T06:09:07.715Z,26.70
2023-04-06T06:11:36.684Z,26.60
2023-04-06T06:14:06.742Z,26.60
2023-04-06T06:16:35.481Z,26.30
2023-04-06T06:19:04.075Z,26.90
2023-04-06T06:21:32.961Z,25.70
2023-04-06T06:24:01.495Z,25.40
2023-04-06T06:26:30.167Z,25.40
2023-04-06T06:28:59.202Z,25.10
2023-04-06T06:31:29.113Z,25.00
2023-04-06T06:33:57.609Z,24.70
2023-04-06T06:36:27.992Z,24.10
2023-04-06T06:38:56.544Z,23.30
2023-04-06T06:41:25.170Z,22.60
2023-04-06T06:43:53.967Z,22.40
2023-04-06T06:46:23.500Z,22.10
2023-04-06T06:48:53.549Z,21.30
2023-04-06T06:51:22.153Z,21.00
2023-04-06T06:53:50.968Z,20.50
2023-04-06T06:56:19.615Z,19.90
2023-04-06T06:58:48.833Z,20.10
2023-04-06T07:01:17.563Z,19.60
2023-04-06T07:03:46.321Z,19.60
2023-04-06T07:06:16.513Z,19.90
2023-04-06T07:08:45.106Z,19.30
2023-04-06T07:11:14.412Z,19.00
2023-04-06T07:13:42.896Z,18.80
2023-04-06T07:16:11.701Z,19.00
2023-04-06T07:18:40.607Z,18.50
2023-04-06T07:21:09.100Z,18.50
2023-04-06T07:23:39.168Z,17.90
2023-04-06T07:26:07.993Z,17.60
2023-04-06T07:28:36.619Z,16.60
2023-04-06T07:31:05.199Z,16.10
2023-04-06T07:33:33.792Z,15.60
2023-04-06T07:36:02.574Z,14.80
2023-04-06T07:38:31.606Z,14.10
2023-04-06T07:41:05.088Z,14.20
2023-04-06T07:43:34.094Z,13.50
2023-04-06T07:46:03.767Z,12.80
2023-04-06T07:48:32.876Z,12.80
2023-04-06T07:51:07.519Z,12.50
2023-04-06T07:53:36.447Z,12.40
2023-04-06T07:56:07.375Z,12.50
2023-04-06T07:58:35.965Z,11.60
2023-04-06T08:01:04.876Z,11.40
2023-04-06T08:03:35.946Z,10.30
2023-04-06T08:06:05.379Z,10.10
2023-04-06T08:08:34.888Z,10.20
2023-04-06T08:11:05.377Z,9.80
2023-04-06T08:13:33.992Z,9.40
2023-04-06T08:16:03.830Z,9.40
2023-04-06T08:18:32.556Z,9.30
2023-04-06T08:21:01.640Z,9.30
2023-04-06T08:23:31.842Z,9.00
2023-04-06T08:26:00.683Z,8.70
2023-04-06T08:28:33.825Z,8.40
2023-04-06T08:31:08.791Z,8.10
2023-04-06T08:33:40.217Z,7.50
2023-04-06T08:36:13.954Z,7.20
2023-04-06T08:38:51.549Z,7.60
2023-04-06T08:41:22.061Z,5.50
2023-04-06T08:44:00.470Z,6.00
2023-04-06T08:46:31.852Z,5.60
2023-04-06T08:49:02.362Z,4.90
2023-04-06T08:51:32.318Z,4.20
2023-04-06T08:54:02.241Z,5.40
2023-04-06T08:56:31.310Z,3.30
2023-04-06T08:59:02.395Z,2.70
2023-04-06T09:01:33.664Z,3.40
2023-04-06T09:04:04.140Z,1.40
2023-04-06T09:06:33.990Z,1.00
2023-04-06T09:09:02.596Z,1.00
2023-04-06T09:11:31.430Z,1.00
2023-04-06T09:14:01.359Z,1.00
2023-04-06T09:16:30.033Z,1.00
2023-04-06T09:19:06.925Z,1.00
2023-04-06T09:21:35.859Z,1.00
2023-04-06T09:24:06.321Z,1.00
2023-04-06T09:26:36.717Z,1.00
2023-04-06T09:29:07.600Z,1.00
2023-04-06T09:31:36.226Z,1.00
2023-04-06T09:34:04.853Z,1.00
2023-04-06T09:36:34.409Z,1.00
2023-04-06T09:39:05.377Z,1.00
2023-04-06T09:41:36.212Z,1.00
2023-04-06T09:44:08.737Z,1.00
2023-04-06T09:46:55.101Z,1.00
2023-04-06T09:49:30.246Z,1.00
2023-04-06T09:52:02.998Z,1.00
2023-04-06T09:54:33.764Z,1.00
2023-04-06T09:57:14.877Z,1.00
2023-04-06T09:59:57.040Z,1.00
2023-04-06T10:02:39.405Z,1.00
2023-04-06T10:05:15.268Z,1.00
2023-04-06T10:07:59.001Z,1.00
2023-04-06T10:10:29.864Z,1.00
2023-04-06T10:13:01.104Z,1.00
2023-04-06T10:15:32.756Z,1.00
2023-04-06T10:18:03.146Z,1.00
2023-04-06T10:20:41.378Z,1.00
2023-04-06T10:23:16.925Z,1.00
2023-04-06T10:25:56.127Z,1.00
2023-04-06T10:28:25.961Z,1.00
2023-04-06T10:31:02.669Z,1.00
2023-04-06T10:33:31.781Z,1.00
2023-04-06T10:36:00.542Z,1.00
2023-04-06T10:38:41.725Z,1.00
2023-04-06T10:41:12.810Z,1.00
2023-04-06T10:43:43.734Z,1.00
2023-04-06T10:46:13.993Z,1.00
2023-04-06T10:48:50.279Z,1.00
2023-04-06T10:51:24.911Z,1.00
2023-04-06T10:54:00.535Z,1.00
2023-04-06T10:56:34.167Z,1.00
2023-04-06T10:59:03.480Z,1.00
2023-04-06T11:01:33.860Z,1.00
2023-04-06T11:04:02.421Z,1.00
2023-04-06T11:06:33.627Z,1.00
2023-04-06T11:09:02.465Z,1.00
2023-04-06T11:11:31.206Z,1.00
2023-04-06T11:14:02.178Z,1.00
2023-04-06T11:16:36.083Z,1.00
2023-04-06T11:19:08.193Z,1.00
2023-04-06T11:21:40.537Z,1.00
2023-04-06T11:24:15.112Z,1.00
2023-04-06T11:26:46.867Z,1.00
2023-04-06T11:29:17.310Z,1.00
2023-04-06T11:31:49.980Z,1.00
2023-04-06T11:34:21.262Z,1.00
2023-04-06T11:36:51.981Z,1.00
2023-04-06T11:39:25.964Z,1.00
2023-04-06T11:41:56.821Z,1.00
2023-04-06T11:44:35.555Z,1.00
2023-04-06T11:47:08.021Z,1.00
2023-04-06T11:49:40.901Z,1.00
2023-04-06T11:52:18.776Z,1.00
2023-04-06T11:54:48.214Z,1.00
2023-04-06T11:57:17.762Z,1.00
2023-04-06T11:59:47.342Z,1.00
2023-04-06T12:02:18.672Z,1.00
2023-04-06T12:04:48.446Z,1.00
2023-04-06T12:07:17.521Z,1.00
2023-04-06T12:09:46.362Z,1.00
2023-04-06T12:12:15.083Z,1.00
2023-04-06T12:14:43.732Z,1.00
2023-04-06T12:17:12.513Z,1.00
2023-04-06T12:19:42.473Z,1.00
2023-04-06T12:22:11.040Z,1.00
2023-04-06T12:24:39.806Z,1.00
2023-04-06T12:27:10.825Z,1.00
2023-04-06T12:29:39.963Z,1.00
2023-04-06T12:32:09.433Z,1.00
2023-04-06T12:34:38.029Z,1.00
2023-04-06T12:37:08.639Z,1.00
2023-04-06T12:39:37.119Z,1.00
2023-04-06T12:42:05.904Z,1.00
2023-04-06T12:44:34.433Z,1.00
2023-04-06T12:47:03.569Z,1.00
2023-04-06T12:49:32.799Z,1.00
2023-04-06T12:52:01.382Z,1.00
2023-04-06T12:54:31.863Z,1.00
2023-04-06T12:57:00.375Z,1.00
2023-04-06T12:59:35.659Z,1.00
2023-04-06T13:02:06.078Z,1.00
2023-04-06T13:04:34.912Z,1.00
2023-04-06T13:07:03.588Z,1.00
2023-04-06T13:09:33.429Z,1.00
2023-04-06T13:12:02.102Z,1.00
2023-04-06T13:14:30.678Z,1.00
2023-04-06T13:16:59.694Z,1.00
2023-04-06T13:19:28.183Z,1.00
2023-04-06T13:21:56.781Z,1.00
2023-04-06T13:24:25.445Z,1.00
2023-04-06T13:26:55.482Z,1.00
2023-04-06T13:29:24.066Z,1.00
2023-04-06T13:31:52.609Z,1.00
2023-04-06T13:34:21.209Z,1.00
2023-04-06T13:36:49.826Z,1.00
2023-04-06T13:39:18.483Z,1.00
2023-04-06T13:41:47.264Z,1.00
2023-04-06T13:44:17.418Z,1.00
2023-04-06T13:46:46.077Z,1.00
2023-04-06T13:49:14.555Z,1.00
2023-04-06T13:51:43.559Z,1.00
2023-04-06T13:54:11.963Z,1.00
2023-04-06T13:56:40.611Z,1.00
2023-04-06T13:59:09.226Z,1.00
2023-04-06T14:01:39.849Z,1.00
2023-04-06T14:04:08.638Z,1.00
2023-04-06T14:06:37.493Z,1.00
2023-04-06T14:09:06.477Z,1.00
2023-04-06T14:11:35.359Z,1.00
2023-04-06T14:14:04.083Z,1.00
2023-04-06T14:16:32.919Z,1.00
2023-04-06T14:19:04.009Z,1.00
2023-04-06T14:21:33.301Z,1.00
2023-04-06T14:24:03.046Z,1.00
2023-04-06T14:26:31.788Z,1.00
2023-04-06T14:29:02.695Z,1.00
2023-04-06T14:31:31.415Z,1.00
2023-04-06T14:34:00.303Z,1.00
2023-04-06T14:36:33.029Z,1.00
2023-04-06T14:39:01.794Z,1.00
2023-04-06T14:41:30.498Z,1.00
2023-04-06T14:43:59.359Z,1.00
2023-04-06T14:46:28.956Z,1.00
2023-04-06T14:48:58.691Z,1.00
2023-04-06T14:51:28.204Z,1.00
2023-04-06T14:53:58.820Z,1.00
2023-04-06T14:56:27.475Z,1.00
2023-04-06T14:58:58.129Z,1.00
2023-04-06T15:01:26.922Z,1.00
2023-04-06T15:03:56.289Z,1.00
2023-04-06T15:06:25.216Z,1.00
2023-04-06T15:08:55.530Z,1.00
2023-04-06T15:11:25.664Z,1.00
2023-04-06T15:13:54.545Z,1.00
2023-04-06T15:16:23.330Z,1.00
2023-04-06T15:18:53.116Z,1.00
2023-04-06T15:21:23.417Z,1.00
2023-04-06T15:23:53.565Z,1.00
2023-04-06T15:26:24.961Z,1.00
2023-04-06T15:28:53.435Z,1.00
2023-04-06T15:34:11.315Z,1.00
2023-04-06T15:36:39.922Z,1.00
2023-04-06T15:39:10.129Z,1.00
2023-04-06T15:41:41.965Z,1.00
2023-04-06T15:44:11.051Z,1.00
2023-04-06T15:46:39.594Z,1.00
2023-04-06T15:49:08.037Z,1.00
2023-04-06T15:51:37.251Z,1.00
2023-04-06T15:54:05.878Z,1.00
2023-04-06T15:56:34.637Z,1.00
2023-04-06T15:59:05.613Z,1.00
2023-04-06T16:01:34.162Z,1.00
2023-04-06T16:04:02.869Z,1.00
2023-04-06T16:06:32.985Z,1.00
2023-04-06T16:09:01.957Z,1.00
2023-04-06T16:11:32.451Z,1.00
2023-04-06T16:14:01.209Z,1.00
2023-04-06T16:16:31.451Z,1.00
2023-04-06T16:19:00.013Z,1.00
2023-04-06T16:21:28.879Z,1.00
2023-04-06T16:23:59.640Z,1.00
2023-04-06T16:26:28.747Z,1.00
2023-04-06T16:28:57.365Z,1.00
2023-04-06T16:31:26.645Z,1.00
2023-04-06T16:33:58.360Z,1.00
2023-04-06T16:36:28.629Z,1.00
2023-04-06T16:38:58.064Z,1.00
2023-04-06T16:41:28.214Z,1.00
2023-04-06T16:43:57.742Z,1.00
2023-04-06T16:46:32.071Z,1.00
2023-04-06T16:49:02.585Z,1.00
2023-04-06T16:51:32.430Z,1.00
2023-04-06T16:54:02.406Z,1.00
2023-04-06T16:56:31.472Z,1.00
2023-04-06T16:59:00.025Z,1.00
2023-04-06T17:01:30.465Z,1.00
2023-04-06T17:03:59.316Z,1.00
2023-04-06T17:06:29.618Z,1.00
2023-04-06T17:09:00.091Z,1.00
2023-04-06T17:11:36.137Z,1.00
2023-04-06T17:14:14.692Z,1.00
2023-04-06T17:16:43.368Z,1.00
2023-04-06T17:19:12.222Z,1.00
2023-04-06T17:21:43.318Z,1.00
2023-04-06T17:24:12.097Z,1.00
2023-04-06T17:26:40.954Z,1.00
2023-04-06T17:29:09.535Z,1.80
2023-04-06T17:31:38.280Z,2.80
2023-04-06T17:34:06.788Z,2.90
2023-04-06T17:36:36.742Z,3.50
2023-04-06T17:39:06.796Z,4.00
2023-04-06T17:41:35.309Z,4.10
2023-04-06T17:44:04.144Z,4.50
2023-04-06T17:46:32.877Z,4.70
2023-04-06T17:49:01.506Z,5.40
2023-04-06T17:51:31.271Z,5.70
2023-04-06T17:54:00.145Z,6.00
2023-04-06T17:56:30.315Z,6.80
2023-04-06T17:58:58.964Z,7.10
2023-04-06T18:01:27.599Z,7.40
2023-04-06T18:03:56.417Z,7.60
2023-04-06T18:06:25.772Z,8.60
2023-04-06T18:08:54.623Z,9.10
2023-04-06T18:11:23.386Z,9.40
2023-04-06T18:13:53.662Z,9.50
2023-04-06T18:16:22.496Z,9.70
2023-04-06T18:18:51.457Z,9.50
2023-04-06T18:21:19.944Z,9.50
2023-04-06T18:23:49.371Z,9.80
2023-04-06T18:26:21.188Z,10.30
2023-04-06T18:28:49.662Z,10.80
2023-04-06T18:31:21.622Z,11.30
2023-04-06T18:33:51.149Z,11.40
2023-04-06T18:36:20.542Z,11.30
2023-04-06T18:38:51.059Z,11.10
2023-04-06T18:41:20.815Z,11.70
2023-04-06T18:43:49.895Z,11.90
2023-04-06T18:46:20.997Z,12.50
2023-04-06T18:48:49.528Z,12.90
2023-04-06T18:51:18.268Z,13.10
2023-04-06T18:53:46.781Z,13.40
2023-04-06T18:56:16.528Z,14.00
2023-04-06T18:58:45.983Z,14.20
2023-04-06T19:01:24.263Z,14.30
2023-04-06T19:03:54.096Z,14.60
2023-04-06T19:06:23.357Z,14.70
2023-04-06T19:08:52.173Z,14.50
2023-04-06T19:11:23.311Z,14.50
2023-04-06T19:13:52.015Z,14.40
2023-04-06T19:16:20.484Z,14.60
2023-04-06T19:18:50.470Z,15.20
2023-04-06T19:21:20.306Z,15.30
2023-04-06T19:23:50.741Z,15.40
2023-04-06T19:26:20.977Z,15.30
2023-04-06T19:28:50.056Z,15.20
2023-04-06T19:31:20.079Z,15.00
2023-04-06T19:33:50.537Z,15.10
2023-04-06T19:36:19.128Z,15.40
2023-04-06T19:38:47.664Z,15.40
2023-04-06T19:41:16.183Z,15.40
2023-04-06T19:43:44.711Z,15.40
2023-04-06T19:46:14.863Z,15.40
2023-04-06T19:48:43.440Z,15.70
2023-04-06T19:51:13.672Z,15.90
2023-04-06T19:53:42.231Z,15.90
2023-04-06T19:56:11.349Z,16.10
2023-04-06T19:58:40.395Z,16.00
2023-04-06T20:01:08.904Z,16.00
2023-04-06T20:03:37.560Z,15.90
2023-04-06T20:06:06.396Z,15.80
2023-04-06T20:08:36.403Z,15.70
2023-04-06T20:11:07.588Z,15.90
2023-04-06T20:13:36.989Z,15.70
2023-04-06T20:16:06.260Z,16.30
2023-04-06T20:18:34.927Z,16.60
2023-04-06T20:21:04.533Z,16.70
2023-04-06T20:23:34.902Z,16.90
2023-04-06T20:26:05.077Z,16.90
2023-04-06T20:28:33.853Z,17.00
2023-04-06T20:31:02.578Z,17.10
2023-04-06T20:33:31.115Z,17.00
2023-04-06T20:36:00.159Z,16.90
2023-04-06T20:38:33.540Z,17.10
2023-04-06T20:41:04.154Z,17.00
2023-04-06T20:43:32.647Z,17.00
2023-04-06T20:46:02.487Z,16.90
2023-04-06T20:48:36.049Z,17.00
2023-04-06T20:51:05.778Z,17.00
2023-04-06T20:53:34.504Z,17.10
2023-04-06T20:56:04.893Z,17.50
2023-04-06T20:58:33.359Z,18.00
2023-04-06T21:01:02.254Z,18.00
2023-04-06T21:03:31.053Z,17.90
2023-04-06T21:06:02.277Z,18.30
2023-04-06T21:08:30.964Z,18.20
2023-04-06T21:10:59.523Z,18.20
2023-04-06T21:13:29.568Z,18.30
2023-04-06T21:15:58.074Z,18.50
2023-04-06T21:18:26.737Z,18.50
2023-04-06T21:20:55.362Z,18.30
2023-04-06T21:23:24.136Z,18.40
2023-04-06T21:25:55.344Z,18.50
2023-04-06T21:28:24.382Z,18.60
2023-04-06T21:30:54.422Z,18.60
2023-04-06T21:33:23.827Z,19.00
2023-04-06T21:35:53.708Z,18.80
2023-04-06T21:38:22.317Z,18.70
2023-04-06T21:40:56.837Z,18.70
2023-04-06T21:43:25.437Z,18.80
2023-04-06T21:45:55.399Z,19.20
2023-04-06T21:48:23.901Z,19.00
2023-04-06T21:50:52.557Z,19.00
2023-04-06T21:53:21.153Z,18.90
2023-04-06T21:55:51.103Z,18.60
2023-04-06T21:58:19.738Z,18.40
2023-04-06T22:00:48.645Z,18.80
2023-04-06T22:03:18.725Z,18.80
2023-04-06T22:05:47.368Z,18.80
2023-04-06T22:08:25.325Z,18.70
2023-04-06T22:11:02.055Z,18.60
2023-04-06T22:13:30.794Z,18.20
2023-04-06T22:15:59.300Z,18.10
2023-04-06T22:18:30.120Z,18.20
2023-04-06T22:20:59.008Z,18.40
2023-04-06T22:23:27.578Z,18.50
2023-04-06T22:25:58.079Z,18.50
2023-04-06T22:28:27.162Z,18.40
2023-04-06T22:30:55.850Z,18.40
2023-04-06T22:33:24.405Z,18.20
2023-04-06T22:35:54.545Z,18.00
2023-04-06T22:38:23.091Z,18.50
2023-04-06T22:40:51.564Z,18.40
2023-04-06T22:43:20.066Z,18.40
2023-04-06T22:45:48.645Z,18.30
2023-04-06T22:48:17.596Z,18.00
2023-04-06T22:50:46.330Z,17.90
2023-04-06T22:53:16.412Z,17.80
2023-04-06T22:55:45.755Z,17.70
2023-04-06T22:58:14.240Z,17.70
2023-04-06T23:00:43.509Z,17.60
2023-04-06T23:03:12.214Z,17.70
2023-04-06T23:05:40.932Z,17.80
2023-04-06T23:08:09.499Z,17.70
2023-04-06T23:10:42.236Z,17.80
2023-04-06T23:13:11.135Z,17.70
2023-04-06T23:15:39.733Z,18.00
2023-04-06T23:18:08.392Z,17.80
2023-04-06T23:20:37.168Z,17.80
2023-04-06T23:23:05.709Z,17.70
2023-04-06T23:25:34.297Z,17.80
2023-04-06T23:28:04.372Z,18.50
2023-04-06T23:30:32.900Z,19.10
2023-04-06T23:33:01.555Z,19.60
2023-04-06T23:35:30.138Z,19.60
2023-04-06T23:37:59.442Z,19.50
2023-04-06T23:40:28.215Z,19.50
2023-04-06T23:42:56.652Z,19.60
2023-04-06T23:45:26.763Z,19.20
2023-04-06T23:47:55.386Z,18.90
2023-04-06T23:50:24.094Z,19.00
2023-04-06T23:52:52.503Z,18.60
2023-04-06T23:55:20.932Z,18.70
2023-04-06T23:57:49.397Z,19.00
